MEX weather

Licenciado Benito Juarez International Airport
Mexico City, Distrito Federal, Mexico

Public forecast

Using degrees Celsius for public forecast. Weather courtesy of forecast.io.

Current aviation weather report (METAR) for Licenciado Benito Juarez International Airport

Retrieved 2019/10/17 04:50 UTC (31 minutes ago):

MMMX 170450Z 36010KT 10SM SCT020 BKN080 BKN200 16/11 A3027 NOSIG RMK 8/578 OCNL DROPS

Aviation forecast (TAF) for Licenciado Benito Juarez International Airport

Retrieved 2019-10-17 00:36 UTC (5 hours ago):

TAF MMMX 162333Z 1700/1806 35012KT P6SM VC RA BKN020 BKN080 OVC220 TX22/1721Z TN14/1712Z BECMG 1702/1703 04005KT P6SM FM171000 04005KT 6SM HZ SCT020 BKN080 BKN220 TEMPO 1711/1714 6SM -RA BKN020 OVC080 FM171700 04008KT P6SM SCT020 BKN080 TEMPO 1722/1802 5SM -TSRA BKN020CB BKN080